createdAt,value
2022-11-04T00:08:55.047Z,74.38
2022-11-04T00:19:00.142Z,74.45
2022-11-04T00:29:03.365Z,74.67
2022-11-04T00:39:06.720Z,74.96
2022-11-04T00:49:09.924Z,74.98
2022-11-04T00:59:14.604Z,74.83
2022-11-04T01:09:18.637Z,75.34
2022-11-04T01:19:22.346Z,75.51
2022-11-04T01:29:25.710Z,75.31
2022-11-04T01:39:29.026Z,75.65
2022-11-04T01:49:43.375Z,75.45
2022-11-04T01:59:47.577Z,75.37
2022-11-04T02:09:51.145Z,75.53
2022-11-04T02:20:16.410Z,75.26
2022-11-04T02:30:22.192Z,75.52
2022-11-04T02:40:47.400Z,75.40
2022-11-04T02:50:54.110Z,75.45
2022-11-04T03:01:00.027Z,75.13
2022-11-04T03:11:19.928Z,75.01
2022-11-04T03:21:26.010Z,75.01
2022-11-04T03:31:44.981Z,74.80
2022-11-04T03:41:56.911Z,74.66
2022-11-04T03:52:00.242Z,74.36
2022-11-04T04:02:20.737Z,74.29
2022-11-04T04:12:37.840Z,73.98
2022-11-04T04:22:46.178Z,73.54
2022-11-04T04:33:11.918Z,73.43
2022-11-04T04:43:35.480Z,73.29
2022-11-04T04:53:38.719Z,73.29
2022-11-04T05:03:45.108Z,73.05
2022-11-04T05:13:48.731Z,73.00
2022-11-04T05:23:52.007Z,72.77
2022-11-04T05:33:55.234Z,72.68
2022-11-04T05:44:03.467Z,72.37
2022-11-04T05:54:06.788Z,72.04
2022-11-04T06:04:15.741Z,71.91
2022-11-04T06:14:19.101Z,71.61
2022-11-04T06:24:22.689Z,71.29
2022-11-04T06:34:25.936Z,70.99
2022-11-04T06:44:29.315Z,70.57
2022-11-04T06:54:32.957Z,70.00
2022-11-04T07:04:37.787Z,69.40
2022-11-04T07:14:41.009Z,68.98
2022-11-04T07:24:44.707Z,68.52
2022-11-04T07:34:50.602Z,67.80
2022-11-04T07:44:54.315Z,67.31
2022-11-04T07:54:57.723Z,66.68
2022-11-04T08:05:00.984Z,66.29
2022-11-04T08:15:05.689Z,65.72
2022-11-04T08:25:11.410Z,64.92
2022-11-04T08:35:14.717Z,64.53
2022-11-04T08:45:18.033Z,64.05
2022-11-04T08:55:21.335Z,63.62
2022-11-04T09:05:25.743Z,63.07
2022-11-04T09:15:29.091Z,62.70
2022-11-04T09:25:33.390Z,61.97
2022-11-04T09:35:36.618Z,61.25
2022-11-04T09:45:43.283Z,60.40
2022-11-04T09:55:55.877Z,59.67
2022-11-04T10:06:01.782Z,59.00
2022-11-04T10:16:38.141Z,58.58
2022-11-04T10:26:59.009Z,57.73
2022-11-04T10:37:05.109Z,57.30
2022-11-04T10:47:32.321Z,56.90
2022-11-04T10:57:35.775Z,56.33
2022-11-04T11:07:39.405Z,55.38
2022-11-04T11:17:43.926Z,54.98
2022-11-04T11:27:56.901Z,55.05
2022-11-04T11:38:04.343Z,55.25
2022-11-04T11:48:28.312Z,55.08
2022-11-04T12:09:24.973Z,54.88
2022-11-04T12:19:42.951Z,54.74
2022-11-04T12:30:02.631Z,54.96
2022-11-04T12:40:20.576Z,55.49
2022-11-04T12:50:57.342Z,56.10
2022-11-04T13:01:12.442Z,56.79
2022-11-04T13:11:28.480Z,57.28
2022-11-04T13:21:36.768Z,57.60
2022-11-04T13:32:06.027Z,57.95
2022-11-04T13:42:41.094Z,58.28
2022-11-04T13:52:52.566Z,58.46
2022-11-04T14:02:58.763Z,58.36
2022-11-04T14:13:27.915Z,58.39
2022-11-04T14:23:31.608Z,58.23
2022-11-04T14:33:55.083Z,58.41
2022-11-04T14:44:18.645Z,58.81
2022-11-04T14:54:27.241Z,59.09
2022-11-04T15:04:32.643Z,59.46
2022-11-04T15:14:37.795Z,59.83
2022-11-04T15:24:43.945Z,60.20
2022-11-04T15:34:48.097Z,60.87
2022-11-04T15:44:54.350Z,61.39
2022-11-04T15:55:00.137Z,61.62
2022-11-04T16:05:06.291Z,61.92
2022-11-04T16:15:32.256Z,62.22
2022-11-04T16:25:36.218Z,62.34
2022-11-04T16:35:42.941Z,62.41
2022-11-04T16:45:54.134Z,62.48
2022-11-04T16:55:58.734Z,62.76
2022-11-04T17:06:02.006Z,62.87
2022-11-04T17:16:07.288Z,63.05
2022-11-04T17:26:12.909Z,63.16
2022-11-04T17:36:18.618Z,63.43
2022-11-04T17:46:34.624Z,63.70
2022-11-04T17:56:39.372Z,64.11
2022-11-04T18:06:43.035Z,64.18
2022-11-04T18:16:49.062Z,64.04
2022-11-04T18:26:53.151Z,64.20
2022-11-04T18:36:57.349Z,64.17
2022-11-04T18:47:00.519Z,63.98
2022-11-04T18:57:04.916Z,64.12
2022-11-04T19:07:08.157Z,64.12
2022-11-04T19:17:11.704Z,64.08
2022-11-04T19:27:16.038Z,64.22
2022-11-04T19:37:19.341Z,64.26
2022-11-04T19:47:22.882Z,64.44
2022-11-04T19:57:27.479Z,64.76
2022-11-04T20:07:30.839Z,64.57
2022-11-04T20:17:34.015Z,64.55
2022-11-04T20:27:37.870Z,64.67
2022-11-04T20:37:43.154Z,64.61
2022-11-04T20:47:46.788Z,64.52
2022-11-04T20:57:49.995Z,64.62
2022-11-04T21:07:53.368Z,64.56
2022-11-04T21:17:56.553Z,64.49
2022-11-04T21:27:59.774Z,64.78
2022-11-04T21:38:04.992Z,64.95
2022-11-04T21:48:09.129Z,64.83
2022-11-04T21:58:12.897Z,64.90
2022-11-04T22:08:16.602Z,64.95
2022-11-04T22:18:19.827Z,64.91
2022-11-04T22:28:23.113Z,65.06
2022-11-04T22:38:26.394Z,65.12
2022-11-04T22:48:29.666Z,65.04
2022-11-04T22:58:35.040Z,65.15
2022-11-04T23:08:40.346Z,65.19
2022-11-04T23:18:45.160Z,65.42
2022-11-04T23:29:06.937Z,65.35
2022-11-04T23:39:10.109Z,64.99
2022-11-04T23:49:32.534Z,65.17
2022-11-04T23:59:54.624Z,65.12
